Time;durP1;ratioP1;P1;durP2;ratioP2;P2;SDS_P1;SDS_P2;PMS_P1;PMS_P2;Temp;Humidity;BMP_temperature;BMP_pressure;BME280_temperature;BME280_humidity;BME280_pressure;Samples;Min_cycle;Max_cycle;Signal;HPM_P1;HPM_P2
2022/12/07 00:01:31;;;;;;;16.07;12.60;;;;;;;;;;6342730;22;20574;-76
2022/12/07 00:04:21;;;;;;;16.90;12.50;;;;;;;;;;6343291;22;20446;-76
2022/12/07 00:07:12;;;;;;;15.70;13.20;;;;;;;;;;6345672;22;20410;-77
2022/12/07 00:10:04;;;;;;;15.70;13.07;;;;;;;;;;6345387;22;20411;-75
2022/12/07 00:12:52;;;;;;;16.50;13.47;;;;;;;;;;6343296;22;20421;-77
2022/12/07 00:15:41;;;;;;;13.37;12.03;;;;;;;;;;6339328;22;20409;-75
2022/12/07 00:18:29;;;;;;;17.57;13.73;;;;;;;;;;6339832;22;20405;-79
2022/12/07 00:21:23;;;;;;;16.80;13.73;;;;;;;;;;6341552;22;20417;-75
2022/12/07 00:24:13;;;;;;;19.00;14.23;;;;;;;;;;6311296;22;20427;-75
2022/12/07 00:27:01;;;;;;;16.60;13.23;;;;;;;;;;6318372;22;20467;-74
2022/12/07 00:29:50;;;;;;;15.73;13.43;;;;;;;;;;6324093;22;20896;-74
2022/12/07 00:32:39;;;;;;;15.03;13.00;;;;;;;;;;6327783;22;20404;-73
2022/12/07 00:35:27;;;;;;;17.20;14.13;;;;;;;;;;6322724;22;20448;-74
2022/12/07 00:38:17;;;;;;;16.70;12.90;;;;;;;;;;6295639;22;20409;-76
2022/12/07 00:41:06;;;;;;;14.93;12.70;;;;;;;;;;6297601;22;20420;-74
2022/12/07 00:44:00;;;;;;;14.93;12.90;;;;;;;;;;6296191;22;20403;-74
2022/12/07 00:46:48;;;;;;;15.77;12.33;;;;;;;;;;6295031;22;21094;-74
2022/12/07 00:49:41;;;;;;;14.77;12.10;;;;;;;;;;6297330;22;20900;-74
2022/12/07 00:52:29;;;;;;;15.53;12.27;;;;;;;;;;6307784;22;20405;-74
2022/12/07 00:55:21;;;;;;;15.70;12.50;;;;;;;;;;6290612;22;20409;-74
2022/12/07 00:58:12;;;;;;;16.40;13.07;;;;;;;;;;6296769;22;20411;-74
2022/12/07 01:01:04;;;;;;;15.33;12.13;;;;;;;;;;6300455;22;20413;-74
2022/12/07 01:03:55;;;;;;;13.50;11.43;;;;;;;;;;6299844;22;20411;-74
2022/12/07 01:06:45;;;;;;;14.73;11.83;;;;;;;;;;6311247;22;20425;-74
2022/12/07 01:09:39;;;;;;;11.70;10.50;;;;;;;;;;6298030;22;20413;-75
2022/12/07 01:12:29;;;;;;;13.20;10.40;;;;;;;;;;6297296;22;20847;-75
2022/12/07 01:15:17;;;;;;;12.30;10.20;;;;;;;;;;6297233;22;20731;-74
2022/12/07 01:18:08;;;;;;;14.43;10.63;;;;;;;;;;6296543;22;20411;-74
2022/12/07 01:21:00;;;;;;;13.10;9.67;;;;;;;;;;6297925;22;20416;-74
2022/12/07 01:23:53;;;;;;;12.83;9.30;;;;;;;;;;6295068;22;21175;-74
2022/12/07 01:26:41;;;;;;;9.83;8.83;;;;;;;;;;6295699;22;20445;-75
2022/12/07 01:29:31;;;;;;;11.27;9.93;;;;;;;;;;6297126;22;20405;-74
2022/12/07 01:32:20;;;;;;;9.83;8.83;;;;;;;;;;6296815;22;20413;-73
2022/12/07 01:35:11;;;;;;;11.30;9.33;;;;;;;;;;6294307;22;20419;-75
2022/12/07 01:38:02;;;;;;;9.40;8.27;;;;;;;;;;6303156;22;20420;-74
2022/12/07 01:40:55;;;;;;;10.13;8.83;;;;;;;;;;6301630;22;20413;-74
2022/12/07 01:44:00;;;;;;;11.90;9.77;;;;;;;;;;6294439;22;20412;-74
2022/12/07 01:46:58;;;;;;;12.10;9.40;;;;;;;;;;6298584;22;20442;-74
2022/12/07 01:49:52;;;;;;;10.83;9.37;;;;;;;;;;6299422;22;20750;-74
2022/12/07 01:52:43;;;;;;;13.73;9.50;;;;;;;;;;6295306;22;21008;-74
2022/12/07 01:55:39;;;;;;;9.07;8.17;;;;;;;;;;6299448;22;20411;-77
2022/12/07 01:58:27;;;;;;;10.70;8.40;;;;;;;;;;6309535;22;20423;-74
2022/12/07 02:01:16;;;;;;;10.23;9.07;;;;;;;;;;6301339;22;20405;-74
2022/12/07 02:04:10;;;;;;;12.57;8.70;;;;;;;;;;6296370;22;20412;-74
2022/12/07 02:07:02;;;;;;;9.47;8.13;;;;;;;;;;6297339;22;20447;-74
2022/12/07 02:09:50;;;;;;;10.67;8.53;;;;;;;;;;6308700;22;20684;-74
2022/12/07 02:12:42;;;;;;;8.60;7.70;;;;;;;;;;6303060;22;20474;-74
2022/12/07 02:15:32;;;;;;;8.60;7.47;;;;;;;;;;6299205;22;20409;-74
2022/12/07 02:18:26;;;;;;;9.90;7.57;;;;;;;;;;6300689;22;20409;-74
2022/12/07 02:21:20;;;;;;;7.73;6.67;;;;;;;;;;6299812;22;20406;-74
2022/12/07 02:24:21;;;;;;;8.93;7.57;;;;;;;;;;6302891;22;20425;-75
2022/12/07 02:27:24;;;;;;;7.43;6.37;;;;;;;;;;6301459;22;20784;-74
2022/12/07 02:30:15;;;;;;;8.10;6.50;;;;;;;;;;6297541;22;20409;-74
2022/12/07 02:33:08;;;;;;;7.67;5.60;;;;;;;;;;6300319;22;20435;-74
2022/12/07 02:36:06;;;;;;;8.40;6.50;;;;;;;;;;6298691;22;20437;-74
2022/12/07 02:39:01;;;;;;;6.50;5.80;;;;;;;;;;6298220;22;20488;-74
2022/12/07 02:41:52;;;;;;;5.90;5.17;;;;;;;;;;6296822;22;20411;-74
2022/12/07 02:44:43;;;;;;;9.00;6.00;;;;;;;;;;6301163;22;20801;-74
2022/12/07 02:47:36;;;;;;;6.67;4.50;;;;;;;;;;6301435;22;20776;-74
2022/12/07 02:50:24;;;;;;;7.50;4.80;;;;;;;;;;6308044;22;20412;-74
2022/12/07 02:53:32;;;;;;;5.07;4.47;;;;;;;;;;6297870;22;20413;-78
2022/12/07 02:56:31;;;;;;;6.03;4.40;;;;;;;;;;6297662;22;20430;-74
2022/12/07 02:59:27;;;;;;;5.33;3.87;;;;;;;;;;6299217;22;20409;-74
2022/12/07 03:02:20;;;;;;;5.93;3.90;;;;;;;;;;6301158;22;20417;-72
2022/12/07 03:05:26;;;;;;;6.73;3.73;;;;;;;;;;6312076;22;20755;-73
2022/12/07 03:08:22;;;;;;;4.43;3.80;;;;;;;;;;6300654;22;20754;-73
2022/12/07 03:11:15;;;;;;;3.40;3.10;;;;;;;;;;6300436;22;20492;-74
2022/12/07 03:14:12;;;;;;;5.30;3.50;;;;;;;;;;6310602;22;20397;-74
2022/12/07 03:17:05;;;;;;;3.87;3.00;;;;;;;;;;6299718;22;20922;-74
2022/12/07 03:19:56;;;;;;;4.07;3.13;;;;;;;;;;6312063;22;20501;-75
2022/12/07 03:22:51;;;;;;;3.00;2.70;;;;;;;;;;6298486;22;20758;-73
2022/12/07 03:25:44;;;;;;;3.33;3.03;;;;;;;;;;6297741;22;20434;-74
2022/12/07 03:28:38;;;;;;;4.03;2.60;;;;;;;;;;6299940;22;20421;-74
2022/12/07 03:31:33;;;;;;;3.97;2.50;;;;;;;;;;6303497;22;20424;-76
2022/12/07 03:34:27;;;;;;;2.23;2.00;;;;;;;;;;6302415;22;20754;-75
2022/12/07 03:37:21;;;;;;;2.03;1.80;;;;;;;;;;6299970;22;20429;-75
2022/12/07 03:40:14;;;;;;;4.73;1.70;;;;;;;;;;6300528;22;20903;-75
2022/12/07 03:43:05;;;;;;;3.07;2.20;;;;;;;;;;6297863;22;20423;-75
2022/12/07 03:46:00;;;;;;;2.70;2.50;;;;;;;;;;6300738;22;20444;-75
2022/12/07 03:48:56;;;;;;;2.10;1.70;;;;;;;;;;6299603;22;20407;-75
2022/12/07 03:51:47;;;;;;;2.53;1.67;;;;;;;;;;6308411;22;20418;-74
2022/12/07 03:54:38;;;;;;;3.53;1.77;;;;;;;;;;6309245;22;20405;-75
2022/12/07 03:57:33;;;;;;;2.10;1.60;;;;;;;;;;6298921;22;20429;-75
2022/12/07 04:00:21;;;;;;;1.50;1.40;;;;;;;;;;6300082;22;20413;-75
2022/12/07 04:03:10;;;;;;;2.80;2.00;;;;;;;;;;6299346;22;21315;-75
2022/12/07 04:06:00;;;;;;;3.67;1.93;;;;;;;;;;6312048;22;20432;-73
2022/12/07 04:08:54;;;;;;;3.03;2.00;;;;;;;;;;6308666;22;20489;-73
2022/12/07 04:11:46;;;;;;;2.70;2.07;;;;;;;;;;6299617;22;20975;-74
2022/12/07 04:14:36;;;;;;;3.20;2.10;;;;;;;;;;6301951;22;21278;-75
2022/12/07 04:17:26;;;;;;;2.10;1.90;;;;;;;;;;6299677;22;20425;-74
2022/12/07 04:20:15;;;;;;;4.37;1.90;;;;;;;;;;6305344;22;20409;-74
2022/12/07 04:23:03;;;;;;;2.63;2.40;;;;;;;;;;6300268;22;20444;-75
2022/12/07 04:25:56;;;;;;;2.10;1.80;;;;;;;;;;6294063;22;20447;-74
2022/12/07 04:28:55;;;;;;;3.80;2.37;;;;;;;;;;6293251;22;20437;-74
2022/12/07 04:31:56;;;;;;;2.63;1.90;;;;;;;;;;6293036;22;20466;-74
2022/12/07 04:34:45;;;;;;;3.70;2.20;;;;;;;;;;6296231;22;20433;-73
2022/12/07 04:37:43;;;;;;;2.30;2.10;;;;;;;;;;6308455;22;20429;-74
2022/12/07 04:40:32;;;;;;;2.73;2.13;;;;;;;;;;6295474;22;20413;-74
2022/12/07 04:43:24;;;;;;;2.87;2.40;;;;;;;;;;6294467;22;20419;-75
2022/12/07 04:46:12;;;;;;;4.00;2.60;;;;;;;;;;6293041;22;20436;-74
2022/12/07 04:49:11;;;;;;;2.87;2.30;;;;;;;;;;6292757;22;20410;-74
2022/12/07 04:52:00;;;;;;;4.13;2.60;;;;;;;;;;6296034;22;20420;-75
2022/12/07 04:54:51;;;;;;;3.83;2.50;;;;;;;;;;6296323;22;20414;-73
2022/12/07 04:57:40;;;;;;;3.70;2.77;;;;;;;;;;6300102;22;20425;-75
2022/12/07 05:00:31;;;;;;;3.00;2.43;;;;;;;;;;6296164;22;20413;-75
2022/12/07 05:03:24;;;;;;;3.10;2.80;;;;;;;;;;6301965;22;20409;-75
2022/12/07 05:06:18;;;;;;;3.13;2.60;;;;;;;;;;6296911;22;20446;-75
2022/12/07 05:09:09;;;;;;;3.20;2.77;;;;;;;;;;6294023;22;20405;-75
2022/12/07 05:12:02;;;;;;;3.03;2.63;;;;;;;;;;6306535;22;20838;-75
2022/12/07 05:14:51;;;;;;;3.27;2.87;;;;;;;;;;6295526;22;20415;-75
2022/12/07 05:17:39;;;;;;;3.17;2.87;;;;;;;;;;6291776;22;20946;-76
2022/12/07 05:20:32;;;;;;;3.63;3.07;;;;;;;;;;6294669;22;20969;-75
2022/12/07 05:23:38;;;;;;;5.90;2.90;;;;;;;;;;6298876;22;20449;-76
2022/12/07 05:26:26;;;;;;;3.33;3.03;;;;;;;;;;6291043;22;20437;-75
2022/12/07 05:29:16;;;;;;;3.70;3.23;;;;;;;;;;6298425;22;20581;-75
2022/12/07 05:32:09;;;;;;;3.27;2.87;;;;;;;;;;6298731;22;20418;-75
2022/12/07 05:35:02;;;;;;;3.50;2.77;;;;;;;;;;6295835;22;20431;-75
2022/12/07 05:37:54;;;;;;;3.00;2.70;;;;;;;;;;6304863;22;20921;-74
2022/12/07 05:40:47;;;;;;;3.33;2.70;;;;;;;;;;6295809;22;20412;-75
2022/12/07 05:43:37;;;;;;;3.87;3.17;;;;;;;;;;6294549;22;20780;-75
2022/12/07 05:46:31;;;;;;;3.60;3.13;;;;;;;;;;6291476;22;20551;-75
2022/12/07 05:49:23;;;;;;;4.90;3.33;;;;;;;;;;6294502;22;20887;-75
2022/12/07 05:52:12;;;;;;;3.47;2.90;;;;;;;;;;6305626;22;20414;-73
2022/12/07 05:55:00;;;;;;;4.80;3.07;;;;;;;;;;6288674;22;20409;-73
2022/12/07 06:00:55;;;;;;;4.17;3.67;;;;;;;;;;6295823;22;20451;-74
2022/12/07 06:03:45;;;;;;;4.00;2.90;;;;;;;;;;6291038;22;20424;-73
2022/12/07 06:06:34;;;;;;;3.97;2.97;;;;;;;;;;6290542;22;21172;-74
2022/12/07 06:09:26;;;;;;;3.93;3.50;;;;;;;;;;6291646;22;20436;-74
2022/12/07 06:15:26;;;;;;;5.43;3.30;;;;;;;;;;6299588;22;20409;-74
2022/12/07 06:18:14;;;;;;;3.70;3.23;;;;;;;;;;6294531;22;20516;-73
2022/12/07 06:21:03;;;;;;;4.00;3.60;;;;;;;;;;6307207;22;20405;-74
2022/12/07 06:23:54;;;;;;;4.60;3.70;;;;;;;;;;6290205;22;20413;-74
2022/12/07 06:26:43;;;;;;;5.13;3.70;;;;;;;;;;6288496;22;20460;-75
2022/12/07 06:29:33;;;;;;;3.83;3.43;;;;;;;;;;6345545;22;21256;-77
2022/12/07 06:32:26;;;;;;;3.93;3.50;;;;;;;;;;6341740;22;20487;-75
2022/12/07 06:35:14;;;;;;;3.93;3.53;;;;;;;;;;6340698;22;20411;-74
2022/12/07 06:38:03;;;;;;;3.43;3.10;;;;;;;;;;6340298;22;20427;-76
2022/12/07 06:40:51;;;;;;;3.83;3.13;;;;;;;;;;6341443;22;20416;-75
2022/12/07 06:43:50;;;;;;;4.23;3.30;;;;;;;;;;6343969;22;20408;-75
2022/12/07 06:46:43;;;;;;;3.83;3.00;;;;;;;;;;6342489;22;20431;-74
2022/12/07 06:49:36;;;;;;;4.17;3.20;;;;;;;;;;6340082;22;20405;-74
2022/12/07 06:52:27;;;;;;;3.47;3.07;;;;;;;;;;6355881;22;20995;-74
2022/12/07 06:55:17;;;;;;;6.50;3.30;;;;;;;;;;6349685;22;20404;-74
2022/12/07 06:58:08;;;;;;;3.07;2.77;;;;;;;;;;6345196;22;20914;-74
2022/12/07 07:01:04;;;;;;;3.20;2.80;;;;;;;;;;6340788;22;20404;-74
2022/12/07 07:03:52;;;;;;;8.37;3.10;;;;;;;;;;6346519;22;20431;-74
2022/12/07 07:06:45;;;;;;;7.20;3.90;;;;;;;;;;6346176;22;20423;-74
2022/12/07 07:09:34;;;;;;;3.33;2.60;;;;;;;;;;6345066;22;20402;-75
2022/12/07 07:12:23;;;;;;;3.97;2.30;;;;;;;;;;6342274;22;20404;-74
2022/12/07 07:15:12;;;;;;;5.33;2.83;;;;;;;;;;6346631;22;20418;-75
2022/12/07 07:18:03;;;;;;;3.83;2.40;;;;;;;;;;6356794;22;20433;-74
2022/12/07 07:20:56;;;;;;;2.67;2.00;;;;;;;;;;6340140;22;20400;-75
2022/12/07 07:23:49;;;;;;;2.50;2.27;;;;;;;;;;6346737;22;20732;-75
2022/12/07 07:26:37;;;;;;;3.23;2.33;;;;;;;;;;6345390;22;20423;-75
2022/12/07 07:29:26;;;;;;;6.33;2.20;;;;;;;;;;6340225;22;20436;-74
2022/12/07 07:32:17;;;;;;;3.43;2.10;;;;;;;;;;6342203;22;20412;-73
2022/12/07 07:35:06;;;;;;;4.27;1.97;;;;;;;;;;6346155;22;20408;-74
2022/12/07 07:37:56;;;;;;;2.73;1.97;;;;;;;;;;6343820;22;20619;-75
2022/12/07 07:40:46;;;;;;;2.57;2.00;;;;;;;;;;6347977;22;20427;-75
2022/12/07 07:43:35;;;;;;;3.20;1.90;;;;;;;;;;6348414;22;20411;-75
2022/12/07 07:46:27;;;;;;;2.27;1.57;;;;;;;;;;6345569;22;20414;-74
2022/12/07 07:49:20;;;;;;;1.97;1.40;;;;;;;;;;6347411;22;20436;-75
2022/12/07 07:52:08;;;;;;;1.70;1.30;;;;;;;;;;6347882;22;20487;-74
2022/12/07 07:54:58;;;;;;;2.90;1.50;;;;;;;;;;6345622;22;20484;-75
2022/12/07 07:57:50;;;;;;;2.60;1.70;;;;;;;;;;6340489;22;20428;-75
2022/12/07 08:00:46;;;;;;;2.20;1.83;;;;;;;;;;6359237;22;20921;-73
2022/12/07 08:03:39;;;;;;;1.70;1.60;;;;;;;;;;6355848;22;20870;-76
2022/12/07 08:06:29;;;;;;;1.83;1.57;;;;;;;;;;6346986;22;20416;-76
2022/12/07 08:09:21;;;;;;;1.50;1.40;;;;;;;;;;6344064;22;20803;-74
2022/12/07 08:12:10;;;;;;;2.67;1.40;;;;;;;;;;6346964;22;20413;-75
2022/12/07 08:15:00;;;;;;;2.03;1.67;;;;;;;;;;6344419;22;20435;-74
2022/12/07 08:17:48;;;;;;;2.77;1.50;;;;;;;;;;6344168;22;20420;-74
2022/12/07 08:20:38;;;;;;;7.03;1.60;;;;;;;;;;6347022;22;20508;-75
2022/12/07 08:23:26;;;;;;;2.27;1.83;;;;;;;;;;6344020;22;20408;-74
2022/12/07 08:26:26;;;;;;;1.57;1.47;;;;;;;;;;6345260;22;20412;-75
2022/12/07 08:29:18;;;;;;;3.37;1.90;;;;;;;;;;6347930;22;20449;-75
2022/12/07 08:32:10;;;;;;;2.13;1.33;;;;;;;;;;6347640;22;20409;-75
2022/12/07 08:35:00;;;;;;;2.57;1.70;;;;;;;;;;6342549;22;20434;-74
2022/12/07 08:37:52;;;;;;;2.70;1.80;;;;;;;;;;6344235;22;20450;-74
2022/12/07 08:40:41;;;;;;;2.30;1.40;;;;;;;;;;6347627;22;20410;-74
2022/12/07 08:43:29;;;;;;;1.93;1.50;;;;;;;;;;6343296;22;20401;-74
2022/12/07 08:46:25;;;;;;;2.73;1.50;;;;;;;;;;6346283;22;20481;-75
2022/12/07 08:49:20;;;;;;;2.20;1.43;;;;;;;;;;6345700;22;20443;-74
2022/12/07 08:52:09;;;;;;;3.33;1.60;;;;;;;;;;6348786;22;20406;-74
2022/12/07 08:55:00;;;;;;;4.30;1.90;;;;;;;;;;6342458;22;20704;-75
2022/12/07 08:57:48;;;;;;;2.20;1.43;;;;;;;;;;6345943;22;20431;-74
2022/12/07 09:00:44;;;;;;;3.23;1.63;;;;;;;;;;6342771;22;20851;-74
2022/12/07 09:03:44;;;;;;;3.83;1.40;;;;;;;;;;6343937;22;20461;-74
2022/12/07 09:06:34;;;;;;;4.80;1.77;;;;;;;;;;6349034;22;20523;-75
2022/12/07 09:09:27;;;;;;;3.20;1.60;;;;;;;;;;6343811;22;20457;-74
2022/12/07 09:12:21;;;;;;;1.83;1.50;;;;;;;;;;6348463;22;20409;-76
2022/12/07 09:15:10;;;;;;;3.60;1.40;;;;;;;;;;6343752;22;20486;-74
2022/12/07 09:17:58;;;;;;;1.57;1.20;;;;;;;;;;6343465;22;20424;-74
2022/12/07 09:20:54;;;;;;;3.07;1.47;;;;;;;;;;6345415;22;20408;-75
2022/12/07 09:23:44;;;;;;;3.90;1.90;;;;;;;;;;6344313;22;20972;-74
2022/12/07 09:26:33;;;;;;;1.93;1.47;;;;;;;;;;6343561;22;22164;-77
2022/12/07 09:29:21;;;;;;;3.07;1.80;;;;;;;;;;6342582;22;20429;-75
2022/12/07 09:32:10;;;;;;;3.53;1.67;;;;;;;;;;6343302;22;20416;-76
2022/12/07 09:35:06;;;;;;;4.40;2.03;;;;;;;;;;6339966;22;20412;-74
2022/12/07 09:37:57;;;;;;;2.43;1.60;;;;;;;;;;6342369;22;20426;-74
2022/12/07 09:40:59;;;;;;;3.97;1.60;;;;;;;;;;6347188;22;20400;-75
2022/12/07 09:43:51;;;;;;;3.83;1.90;;;;;;;;;;6346867;22;20405;-76
2022/12/07 09:46:41;;;;;;;1.80;1.67;;;;;;;;;;6342397;22;20438;-75
2022/12/07 09:49:32;;;;;;;6.13;1.67;;;;;;;;;;6339754;22;20501;-74
2022/12/07 09:52:27;;;;;;;2.17;1.70;;;;;;;;;;6344634;22;20407;-75
2022/12/07 09:55:17;;;;;;;2.87;1.90;;;;;;;;;;6346744;22;20419;-75
2022/12/07 09:58:07;;;;;;;3.90;1.80;;;;;;;;;;6344730;22;20434;-75
2022/12/07 10:00:58;;;;;;;3.87;1.43;;;;;;;;;;6341883;22;20412;-76
2022/12/07 10:03:50;;;;;;;3.60;1.60;;;;;;;;;;6346146;22;20432;-74
2022/12/07 10:06:39;;;;;;;2.60;1.70;;;;;;;;;;6349774;22;20425;-77
2022/12/07 10:09:34;;;;;;;4.10;1.87;;;;;;;;;;6344146;22;20432;-75
2022/12/07 10:12:23;;;;;;;5.03;1.50;;;;;;;;;;6346972;22;20465;-74
2022/12/07 10:15:14;;;;;;;4.27;1.70;;;;;;;;;;6345780;22;20412;-75
2022/12/07 10:18:25;;;;;;;2.87;1.50;;;;;;;;;;6347368;22;20429;-76
2022/12/07 10:21:23;;;;;;;2.30;1.67;;;;;;;;;;6346077;22;20409;-74
2022/12/07 10:24:15;;;;;;;7.03;1.90;;;;;;;;;;6348408;22;20401;-73
2022/12/07 10:27:07;;;;;;;4.73;2.10;;;;;;;;;;6339809;22;20523;-74
2022/12/07 10:29:57;;;;;;;2.20;1.50;;;;;;;;;;6343213;22;20437;-75
2022/12/07 10:32:47;;;;;;;3.47;1.40;;;;;;;;;;6346744;22;20404;-75
2022/12/07 10:35:44;;;;;;;2.00;1.13;;;;;;;;;;6342978;22;20416;-75
2022/12/07 10:38:32;;;;;;;3.70;1.50;;;;;;;;;;6344987;22;20425;-74
2022/12/07 10:41:21;;;;;;;3.50;1.63;;;;;;;;;;6342396;22;20422;-75
2022/12/07 10:44:22;;;;;;;2.83;1.20;;;;;;;;;;6343554;22;20787;-74
2022/12/07 10:47:32;;;;;;;3.77;1.40;;;;;;;;;;6343570;22;20439;-75
2022/12/07 10:50:39;;;;;;;2.40;1.20;;;;;;;;;;6346978;22;20438;-75
2022/12/07 10:53:44;;;;;;;1.80;1.10;;;;;;;;;;6345310;22;20428;-75
2022/12/07 10:56:55;;;;;;;2.07;1.17;;;;;;;;;;6338523;22;20406;-75
2022/12/07 10:59:48;;;;;;;2.20;1.40;;;;;;;;;;6342969;22;20403;-75
2022/12/07 11:02:44;;;;;;;2.43;1.20;;;;;;;;;;6343301;22;20409;-75
2022/12/07 11:05:40;;;;;;;3.30;1.37;;;;;;;;;;6349426;22;20415;-74
2022/12/07 11:08:41;;;;;;;3.57;1.10;;;;;;;;;;6354572;22;20411;-77
2022/12/07 11:11:32;;;;;;;3.13;1.40;;;;;;;;;;6341240;22;20403;-76
2022/12/07 11:14:28;;;;;;;4.10;1.50;;;;;;;;;;6334792;22;20427;-75
2022/12/07 11:17:27;;;;;;;3.30;1.33;;;;;;;;;;6335031;22;20429;-75
2022/12/07 11:20:31;;;;;;;4.70;1.47;;;;;;;;;;6340237;22;20882;-76
2022/12/07 11:23:34;;;;;;;2.90;1.30;;;;;;;;;;6342480;22;20783;-76
2022/12/07 11:26:29;;;;;;;3.63;1.30;;;;;;;;;;6338489;22;20419;-73
2022/12/07 11:29:29;;;;;;;3.10;1.30;;;;;;;;;;6303220;22;20782;-75
2022/12/07 11:32:23;;;;;;;4.30;1.70;;;;;;;;;;6306845;22;20408;-74
2022/12/07 11:35:17;;;;;;;2.73;1.50;;;;;;;;;;6309352;22;20412;-73
2022/12/07 11:38:11;;;;;;;10.60;1.90;;;;;;;;;;6306988;22;20455;-75
2022/12/07 11:41:15;;;;;;;2.80;1.37;;;;;;;;;;6309456;22;20443;-75
2022/12/07 11:44:07;;;;;;;3.60;1.30;;;;;;;;;;6306992;22;20408;-75
2022/12/07 11:46:59;;;;;;;2.90;0.97;;;;;;;;;;6308840;22;20432;-74
2022/12/07 11:49:54;;;;;;;4.67;1.60;;;;;;;;;;6304792;22;20448;-75
2022/12/07 11:52:46;;;;;;;2.10;1.03;;;;;;;;;;6307202;22;20479;-76
2022/12/07 11:55:41;;;;;;;2.60;1.40;;;;;;;;;;6314544;22;20423;-75
2022/12/07 11:58:48;;;;;;;2.10;1.40;;;;;;;;;;6308575;22;20433;-75
2022/12/07 12:01:54;;;;;;;3.20;1.33;;;;;;;;;;6309058;22;20418;-77
2022/12/07 12:04:57;;;;;;;3.30;1.40;;;;;;;;;;6308008;22;20412;-75
2022/12/07 12:07:52;;;;;;;2.47;1.60;;;;;;;;;;6305509;22;20426;-74
2022/12/07 12:11:14;;;;;;;3.80;1.40;;;;;;;;;;6307095;22;20932;-76
2022/12/07 12:14:17;;;;;;;2.73;1.40;;;;;;;;;;6306916;22;20765;-74
2022/12/07 12:17:33;;;;;;;1.93;1.23;;;;;;;;;;6305882;22;20429;-76
2022/12/07 12:20:25;;;;;;;2.60;1.17;;;;;;;;;;6300649;22;20891;-76
2022/12/07 12:23:18;;;;;;;3.40;1.37;;;;;;;;;;6305881;22;20405;-75
2022/12/07 12:26:11;;;;;;;3.47;1.30;;;;;;;;;;6305860;22;20490;-76
2022/12/07 12:29:05;;;;;;;1.90;1.27;;;;;;;;;;6308424;22;20532;-75
2022/12/07 12:32:08;;;;;;;4.27;1.30;;;;;;;;;;6329071;22;20404;-75
2022/12/07 12:35:05;;;;;;;5.60;1.37;;;;;;;;;;6335184;22;20406;-75
2022/12/07 12:37:57;;;;;;;2.70;1.60;;;;;;;;;;6333283;22;20972;-75
2022/12/07 12:40:48;;;;;;;3.80;1.37;;;;;;;;;;6307488;22;20420;-74
2022/12/07 12:43:48;;;;;;;6.23;2.07;;;;;;;;;;6294523;22;20516;-74
2022/12/07 12:46:50;;;;;;;7.03;1.80;;;;;;;;;;6296540;22;20412;-74
2022/12/07 12:49:42;;;;;;;3.63;1.70;;;;;;;;;;6295110;22;20436;-74
2022/12/07 12:52:52;;;;;;;8.57;1.40;;;;;;;;;;6300771;22;20419;-73
2022/12/07 12:55:55;;;;;;;3.60;1.40;;;;;;;;;;6309995;22;20409;-73
2022/12/07 12:58:48;;;;;;;4.67;1.17;;;;;;;;;;6298584;22;21279;-74
2022/12/07 13:01:43;;;;;;;3.63;1.53;;;;;;;;;;6290252;22;20409;-73
2022/12/07 13:04:52;;;;;;;3.23;1.10;;;;;;;;;;6295405;22;20412;-74
2022/12/07 13:08:04;;;;;;;3.40;1.07;;;;;;;;;;6299353;22;20465;-74
2022/12/07 13:10:52;;;;;;;2.47;1.10;;;;;;;;;;6291952;22;20437;-73
2022/12/07 13:13:41;;;;;;;1.93;1.00;;;;;;;;;;6300059;22;20412;-74
2022/12/07 13:16:43;;;;;;;3.93;1.23;;;;;;;;;;6296602;22;20473;-74
2022/12/07 13:20:00;;;;;;;2.13;1.20;;;;;;;;;;6284384;22;20776;-73
2022/12/07 13:22:51;;;;;;;3.43;1.40;;;;;;;;;;6292856;22;20415;-75
2022/12/07 13:25:46;;;;;;;1.53;0.83;;;;;;;;;;6297596;22;20413;-75
2022/12/07 13:28:40;;;;;;;4.53;1.10;;;;;;;;;;6303593;22;20455;-75
2022/12/07 13:31:37;;;;;;;2.90;1.93;;;;;;;;;;6299470;22;20527;-75
2022/12/07 13:34:34;;;;;;;2.43;1.10;;;;;;;;;;6305611;22;20408;-74
2022/12/07 13:37:27;;;;;;;3.40;1.50;;;;;;;;;;6297524;22;20419;-73
2022/12/07 13:40:24;;;;;;;2.73;1.00;;;;;;;;;;6323392;22;20954;-74
2022/12/07 13:43:17;;;;;;;6.57;1.27;;;;;;;;;;6299141;22;20756;-73
2022/12/07 13:46:14;;;;;;;4.60;0.97;;;;;;;;;;6303697;22;20406;-73
2022/12/07 13:49:06;;;;;;;4.30;1.17;;;;;;;;;;6293327;22;20777;-74
2022/12/07 13:52:15;;;;;;;1.90;1.37;;;;;;;;;;6306587;22;20440;-74
2022/12/07 13:55:16;;;;;;;2.40;1.20;;;;;;;;;;6308125;22;20409;-74
2022/12/07 13:58:10;;;;;;;2.20;1.13;;;;;;;;;;6307631;22;20898;-73
2022/12/07 14:00:59;;;;;;;3.70;1.30;;;;;;;;;;6297529;22;20843;-73
2022/12/07 14:03:50;;;;;;;3.47;1.43;;;;;;;;;;6301834;22;20503;-74
2022/12/07 14:06:48;;;;;;;2.30;0.90;;;;;;;;;;6297121;22;20418;-73
2022/12/07 14:09:37;;;;;;;5.20;1.23;;;;;;;;;;6298949;22;20769;-73
2022/12/07 14:12:38;;;;;;;3.90;1.00;;;;;;;;;;6312170;22;20467;-73
2022/12/07 14:15:29;;;;;;;3.60;1.00;;;;;;;;;;6297606;22;20411;-74
2022/12/07 14:18:28;;;;;;;3.27;1.13;;;;;;;;;;6300744;22;20407;-74
2022/12/07 14:21:19;;;;;;;5.00;1.63;;;;;;;;;;6299525;22;20419;-74
2022/12/07 14:24:19;;;;;;;2.80;1.30;;;;;;;;;;6311334;22;20437;-74
2022/12/07 14:27:19;;;;;;;3.43;1.10;;;;;;;;;;6301498;22;20406;-74
2022/12/07 14:30:17;;;;;;;2.47;1.43;;;;;;;;;;6295116;22;20933;-73
2022/12/07 14:33:07;;;;;;;1.63;0.90;;;;;;;;;;6306765;22;20862;-73
2022/12/07 14:36:02;;;;;;;2.60;1.00;;;;;;;;;;6312273;22;20405;-75
2022/12/07 14:38:55;;;;;;;3.50;1.10;;;;;;;;;;6296883;22;20424;-73
2022/12/07 14:41:53;;;;;;;1.93;1.13;;;;;;;;;;6300133;22;20407;-75
2022/12/07 14:44:45;;;;;;;3.70;1.27;;;;;;;;;;6298241;22;20407;-75
2022/12/07 14:47:33;;;;;;;5.30;1.70;;;;;;;;;;6292612;22;20488;-76
2022/12/07 14:50:45;;;;;;;3.73;1.20;;;;;;;;;;6298390;22;20473;-76
2022/12/07 14:53:58;;;;;;;3.70;1.27;;;;;;;;;;6296890;22;21354;-75
2022/12/07 14:56:49;;;;;;;2.80;1.33;;;;;;;;;;6303428;22;20757;-76
2022/12/07 14:59:40;;;;;;;3.60;1.50;;;;;;;;;;6293431;22;20488;-75
2022/12/07 15:02:34;;;;;;;5.17;1.27;;;;;;;;;;6306772;22;20886;-77
2022/12/07 15:05:26;;;;;;;2.40;1.47;;;;;;;;;;6300298;22;20410;-75
2022/12/07 15:08:17;;;;;;;4.93;1.57;;;;;;;;;;6308648;22;20448;-75
2022/12/07 15:11:11;;;;;;;3.60;1.30;;;;;;;;;;6299213;22;20445;-75
2022/12/07 15:14:10;;;;;;;3.40;1.40;;;;;;;;;;6296173;22;20412;-75
2022/12/07 15:16:59;;;;;;;2.87;1.13;;;;;;;;;;6295617;22;20898;-77
2022/12/07 15:20:01;;;;;;;3.03;1.00;;;;;;;;;;6305634;22;20438;-77
2022/12/07 15:23:04;;;;;;;6.73;1.30;;;;;;;;;;6296006;22;20416;-75
2022/12/07 15:25:54;;;;;;;2.60;0.87;;;;;;;;;;6290522;22;20417;-75
2022/12/07 15:28:45;;;;;;;1.40;0.90;;;;;;;;;;6287434;22;20465;-75
2022/12/07 15:31:34;;;;;;;1.33;0.80;;;;;;;;;;6292651;22;20445;-74
2022/12/07 15:34:43;;;;;;;0.80;0.80;;;;;;;;;;6300152;22;20440;-75
2022/12/07 15:37:34;;;;;;;1.73;1.07;;;;;;;;;;6306409;22;20765;-74
2022/12/07 15:40:23;;;;;;;2.10;0.80;;;;;;;;;;6290862;22;20433;-74
2022/12/07 15:46:18;;;;;;;0.83;0.83;;;;;;;;;;6298347;22;20415;-74
2022/12/07 15:49:10;;;;;;;1.63;1.00;;;;;;;;;;6309288;22;21338;-75
2022/12/07 15:52:01;;;;;;;1.60;1.37;;;;;;;;;;6301158;22;20438;-74
2022/12/07 15:54:50;;;;;;;1.30;1.20;;;;;;;;;;6300618;22;20417;-74
2022/12/07 15:57:43;;;;;;;2.00;1.50;;;;;;;;;;6297363;22;20416;-74
2022/12/07 16:00:35;;;;;;;4.20;1.30;;;;;;;;;;6308008;22;20432;-74
2022/12/07 16:03:23;;;;;;;1.90;1.63;;;;;;;;;;6302007;22;20405;-74
2022/12/07 16:06:14;;;;;;;2.80;1.97;;;;;;;;;;6299812;22;20409;-74
2022/12/07 16:09:02;;;;;;;2.00;1.67;;;;;;;;;;6309015;22;20875;-74
2022/12/07 16:11:52;;;;;;;3.07;1.33;;;;;;;;;;6310852;22;20447;-75
2022/12/07 16:14:48;;;;;;;4.47;2.00;;;;;;;;;;6295257;22;20410;-74
2022/12/07 16:17:38;;;;;;;3.77;1.50;;;;;;;;;;6308892;22;20769;-74
2022/12/07 16:20:26;;;;;;;3.57;2.10;;;;;;;;;;6295996;22;20433;-74
2022/12/07 16:23:19;;;;;;;3.20;2.00;;;;;;;;;;6299197;22;20752;-74
2022/12/07 16:26:10;;;;;;;3.30;2.40;;;;;;;;;;6299777;22;20441;-74
2022/12/07 16:28:59;;;;;;;3.10;2.00;;;;;;;;;;6306545;22;20515;-75
2022/12/07 16:31:48;;;;;;;3.17;2.87;;;;;;;;;;6295398;22;20433;-74
2022/12/07 16:34:52;;;;;;;3.03;2.60;;;;;;;;;;6294615;22;20502;-75
2022/12/07 16:37:46;;;;;;;4.13;2.70;;;;;;;;;;6297936;22;20439;-75
2022/12/07 16:40:37;;;;;;;3.20;2.10;;;;;;;;;;6297890;22;21025;-74
2022/12/07 16:43:26;;;;;;;3.80;2.50;;;;;;;;;;6289973;22;20740;-73
2022/12/07 16:46:15;;;;;;;2.37;1.90;;;;;;;;;;6287316;22;20774;-74
2022/12/07 16:49:07;;;;;;;4.93;2.63;;;;;;;;;;6291071;22;20945;-74
2022/12/07 16:51:57;;;;;;;2.77;2.37;;;;;;;;;;6290492;22;20432;-74
2022/12/07 16:55:15;;;;;;;4.93;2.30;;;;;;;;;;6292520;22;20478;-74
2022/12/07 16:58:04;;;;;;;3.20;2.00;;;;;;;;;;6297307;22;21384;-74
2022/12/07 17:00:52;;;;;;;3.63;2.13;;;;;;;;;;6296042;22;20748;-73
2022/12/07 17:03:41;;;;;;;3.40;1.67;;;;;;;;;;6296815;22;20929;-74
2022/12/07 17:06:31;;;;;;;3.97;2.20;;;;;;;;;;6296975;22;20507;-74
2022/12/07 17:09:22;;;;;;;2.90;2.10;;;;;;;;;;6311164;22;20429;-73
2022/12/07 17:12:13;;;;;;;2.70;2.33;;;;;;;;;;6295869;22;20444;-74
2022/12/07 17:15:17;;;;;;;6.50;2.77;;;;;;;;;;6298335;22;20414;-77
2022/12/07 17:18:06;;;;;;;4.13;2.77;;;;;;;;;;6298278;22;20409;-75
2022/12/07 17:21:07;;;;;;;3.23;2.40;;;;;;;;;;6292846;22;20441;-75
2022/12/07 17:24:00;;;;;;;3.87;3.50;;;;;;;;;;6298011;22;20401;-74
2022/12/07 17:26:50;;;;;;;5.97;3.13;;;;;;;;;;6292318;22;20895;-75